sensor_id;sensor_type;location;lat;lon;timestamp;temperature;humidity
75683;HTU21D;64295;44.772;39.872;2022-12-10T00:01:52;9.27;62.73
75683;HTU21D;64295;44.772;39.872;2022-12-10T00:04:19;9.30;62.77
75683;HTU21D;64295;44.772;39.872;2022-12-10T00:06:45;9.29;62.79
75683;HTU21D;64295;44.772;39.872;2022-12-10T00:09:16;9.30;62.81
75683;HTU21D;64295;44.772;39.872;2022-12-10T00:11:42;9.26;62.85
75683;HTU21D;64295;44.772;39.872;2022-12-10T00:14:10;9.26;62.90
75683;HTU21D;64295;44.772;39.872;2022-12-10T00:16:37;9.26;62.90
75683;HTU21D;64295;44.772;39.872;2022-12-10T00:19:04;9.24;62.91
75683;HTU21D;64295;44.772;39.872;2022-12-10T00:21:32;9.24;62.95
75683;HTU21D;64295;44.772;39.872;2022-12-10T00:23:59;9.24;62.92
75683;HTU21D;64295;44.772;39.872;2022-12-10T00:26:27;9.25;62.88
75683;HTU21D;64295;44.772;39.872;2022-12-10T00:28:55;9.21;62.92
75683;HTU21D;64295;44.772;39.872;2022-12-10T00:31:26;9.20;62.92
75683;HTU21D;64295;44.772;39.872;2022-12-10T00:33:55;9.22;62.95
75683;HTU21D;64295;44.772;39.872;2022-12-10T00:36:32;9.22;62.95
75683;HTU21D;64295;44.772;39.872;2022-12-10T00:38:59;9.22;62.96
75683;HTU21D;64295;44.772;39.872;2022-12-10T00:41:27;9.21;63.01
75683;HTU21D;64295;44.772;39.872;2022-12-10T00:43:53;9.22;62.98
75683;HTU21D;64295;44.772;39.872;2022-12-10T00:46:19;9.22;63.02
75683;HTU21D;64295;44.772;39.872;2022-12-10T00:48:45;9.22;63.02
75683;HTU21D;64295;44.772;39.872;2022-12-10T00:53:41;9.17;63.15
75683;HTU21D;64295;44.772;39.872;2022-12-10T00:56:09;9.17;63.21
75683;HTU21D;64295;44.772;39.872;2022-12-10T00:58:37;9.14;63.23
75683;HTU21D;64295;44.772;39.872;2022-12-10T01:03:37;9.10;63.34
75683;HTU21D;64295;44.772;39.872;2022-12-10T01:08:41;9.08;63.36
75683;HTU21D;64295;44.772;39.872;2022-12-10T01:11:07;9.06;63.43
75683;HTU21D;64295;44.772;39.872;2022-12-10T01:13:35;9.05;63.43
75683;HTU21D;64295;44.772;39.872;2022-12-10T01:16:06;9.06;63.44
75683;HTU21D;64295;44.772;39.872;2022-12-10T01:18:32;9.08;63.41
75683;HTU21D;64295;44.772;39.872;2022-12-10T01:21:04;9.11;63.43
75683;HTU21D;64295;44.772;39.872;2022-12-10T01:23:35;9.14;63.40
75683;HTU21D;64295;44.772;39.872;2022-12-10T01:26:07;9.17;63.42
75683;HTU21D;64295;44.772;39.872;2022-12-10T01:28:35;9.20;63.35
75683;HTU21D;64295;44.772;39.872;2022-12-10T01:31:07;9.21;63.31
75683;HTU21D;64295;44.772;39.872;2022-12-10T01:33:34;9.23;63.25
75683;HTU21D;64295;44.772;39.872;2022-12-10T01:36:10;9.24;63.28
75683;HTU21D;64295;44.772;39.872;2022-12-10T01:38:36;9.24;63.20
75683;HTU21D;64295;44.772;39.872;2022-12-10T01:41:05;9.22;63.18
75683;HTU21D;64295;44.772;39.872;2022-12-10T01:44:00;9.24;63.23
75683;HTU21D;64295;44.772;39.872;2022-12-10T01:46:35;9.24;63.17
75683;HTU21D;64295;44.772;39.872;2022-12-10T01:49:06;9.25;63.11
75683;HTU21D;64295;44.772;39.872;2022-12-10T01:51:34;9.25;63.05
75683;HTU21D;64295;44.772;39.872;2022-12-10T01:54:05;9.27;63.04
75683;HTU21D;64295;44.772;39.872;2022-12-10T01:56:37;9.31;63.00
75683;HTU21D;64295;44.772;39.872;2022-12-10T01:59:04;9.33;62.94
75683;HTU21D;64295;44.772;39.872;2022-12-10T02:01:39;9.36;62.89
75683;HTU21D;64295;44.772;39.872;2022-12-10T02:07:08;9.38;62.89
75683;HTU21D;64295;44.772;39.872;2022-12-10T02:09:43;9.39;62.90
75683;HTU21D;64295;44.772;39.872;2022-12-10T02:12:32;9.39;62.92
75683;HTU21D;64295;44.772;39.872;2022-12-10T02:15:30;9.39;62.90
75683;HTU21D;64295;44.772;39.872;2022-12-10T02:18:03;9.40;62.86
75683;HTU21D;64295;44.772;39.872;2022-12-10T02:20:34;9.40;62.88
75683;HTU21D;64295;44.772;39.872;2022-12-10T02:23:39;9.38;62.90
75683;HTU21D;64295;44.772;39.872;2022-12-10T02:31:38;9.54;63.31
75683;HTU21D;64295;44.772;39.872;2022-12-10T02:34:05;9.60;63.07
75683;HTU21D;64295;44.772;39.872;2022-12-10T02:36:35;9.63;62.90
75683;HTU21D;64295;44.772;39.872;2022-12-10T02:39:07;9.69;62.76
75683;HTU21D;64295;44.772;39.872;2022-12-10T02:41:43;9.79;62.78
75683;HTU21D;64295;44.772;39.872;2022-12-10T02:44:13;9.80;62.73
75683;HTU21D;64295;44.772;39.872;2022-12-10T02:46:41;9.75;62.83
75683;HTU21D;64295;44.772;39.872;2022-12-10T02:49:11;9.75;62.89
75683;HTU21D;64295;44.772;39.872;2022-12-10T02:51:39;9.75;62.84
75683;HTU21D;64295;44.772;39.872;2022-12-10T02:54:58;9.66;62.94
75683;HTU21D;64295;44.772;39.872;2022-12-10T03:00:18;9.85;63.57
75683;HTU21D;64295;44.772;39.872;2022-12-10T03:06:00;10.71;63.05
75683;HTU21D;64295;44.772;39.872;2022-12-10T03:08:31;10.84;62.56
75683;HTU21D;64295;44.772;39.872;2022-12-10T03:11:01;10.92;62.43
75683;HTU21D;64295;44.772;39.872;2022-12-10T03:16:28;10.54;62.95
75683;HTU21D;64295;44.772;39.872;2022-12-10T03:19:00;10.31;63.35
75683;HTU21D;64295;44.772;39.872;2022-12-10T03:21:28;10.15;63.63
75683;HTU21D;64295;44.772;39.872;2022-12-10T03:23:58;9.98;63.79
75683;HTU21D;64295;44.772;39.872;2022-12-10T03:26:25;9.79;64.08
75683;HTU21D;64295;44.772;39.872;2022-12-10T03:29:05;9.68;64.23
75683;HTU21D;64295;44.772;39.872;2022-12-10T03:31:33;9.60;64.27
75683;HTU21D;64295;44.772;39.872;2022-12-10T03:34:00;9.51;64.30
75683;HTU21D;64295;44.772;39.872;2022-12-10T03:36:27;9.47;64.31
75683;HTU21D;64295;44.772;39.872;2022-12-10T03:38:54;9.41;64.30
75683;HTU21D;64295;44.772;39.872;2022-12-10T03:41:20;9.38;64.27
75683;HTU21D;64295;44.772;39.872;2022-12-10T03:43:57;9.34;64.26
75683;HTU21D;64295;44.772;39.872;2022-12-10T03:46:24;9.34;64.20
75683;HTU21D;64295;44.772;39.872;2022-12-10T03:48:52;9.35;64.16
75683;HTU21D;64295;44.772;39.872;2022-12-10T03:51:19;9.37;64.13
75683;HTU21D;64295;44.772;39.872;2022-12-10T03:53:45;9.36;64.12
75683;HTU21D;64295;44.772;39.872;2022-12-10T03:56:11;9.38;64.14
75683;HTU21D;64295;44.772;39.872;2022-12-10T03:58:37;9.36;64.14
75683;HTU21D;64295;44.772;39.872;2022-12-10T04:01:03;9.36;64.15
75683;HTU21D;64295;44.772;39.872;2022-12-10T04:03:30;9.34;64.27
75683;HTU21D;64295;44.772;39.872;2022-12-10T04:06:13;9.34;64.43
75683;HTU21D;64295;44.772;39.872;2022-12-10T04:08:40;9.30;64.40
75683;HTU21D;64295;44.772;39.872;2022-12-10T04:11:08;9.29;64.53
75683;HTU21D;64295;44.772;39.872;2022-12-10T04:13:36;9.27;64.61
75683;HTU21D;64295;44.772;39.872;2022-12-10T04:16:21;9.27;64.62
75683;HTU21D;64295;44.772;39.872;2022-12-10T04:19:05;9.25;64.69
75683;HTU21D;64295;44.772;39.872;2022-12-10T04:21:33;9.25;64.69
75683;HTU21D;64295;44.772;39.872;2022-12-10T04:24:20;9.23;64.68
75683;HTU21D;64295;44.772;39.872;2022-12-10T04:27:11;9.19;64.73
75683;HTU21D;64295;44.772;39.872;2022-12-10T04:29:40;9.20;64.76
75683;HTU21D;64295;44.772;39.872;2022-12-10T04:32:06;9.21;64.83
75683;HTU21D;64295;44.772;39.872;2022-12-10T04:34:32;9.21;64.92
75683;HTU21D;64295;44.772;39.872;2022-12-10T04:37:00;9.22;64.98
75683;HTU21D;64295;44.772;39.872;2022-12-10T04:39:26;9.22;65.01
75683;HTU21D;64295;44.772;39.872;2022-12-10T04:41:52;9.20;65.02
75683;HTU21D;64295;44.772;39.872;2022-12-10T04:44:18;9.18;65.04
75683;HTU21D;64295;44.772;39.872;2022-12-10T04:46:45;9.16;65.05
75683;HTU21D;64295;44.772;39.872;2022-12-10T04:49:11;9.14;65.11
75683;HTU21D;64295;44.772;39.872;2022-12-10T04:51:37;9.14;65.13
75683;HTU21D;64295;44.772;39.872;2022-12-10T04:54:09;9.11;65.14
75683;HTU21D;64295;44.772;39.872;2022-12-10T04:56:35;9.10;65.18
75683;HTU21D;64295;44.772;39.872;2022-12-10T04:59:02;9.47;65.21
75683;HTU21D;64295;44.772;39.872;2022-12-10T05:01:28;9.66;64.62
75683;HTU21D;64295;44.772;39.872;2022-12-10T05:03:54;9.68;64.56
75683;HTU21D;64295;44.772;39.872;2022-12-10T05:06:32;9.67;64.56
75683;HTU21D;64295;44.772;39.872;2022-12-10T05:08:58;9.67;64.59
75683;HTU21D;64295;44.772;39.872;2022-12-10T05:11:28;9.70;64.57
75683;HTU21D;64295;44.772;39.872;2022-12-10T05:13:55;9.74;64.56
75683;HTU21D;64295;44.772;39.872;2022-12-10T05:16:24;9.77;64.50
75683;HTU21D;64295;44.772;39.872;2022-12-10T05:18:50;9.77;64.46
75683;HTU21D;64295;44.772;39.872;2022-12-10T05:21:21;9.80;64.44
75683;HTU21D;64295;44.772;39.872;2022-12-10T05:23:50;9.80;64.38
75683;HTU21D;64295;44.772;39.872;2022-12-10T05:26:21;9.80;64.34
75683;HTU21D;64295;44.772;39.872;2022-12-10T05:28:53;9.78;64.37
75683;HTU21D;64295;44.772;39.872;2022-12-10T05:31:24;9.79;64.38
75683;HTU21D;64295;44.772;39.872;2022-12-10T05:33:51;9.80;64.33
75683;HTU21D;64295;44.772;39.872;2022-12-10T05:36:19;9.85;64.24
75683;HTU21D;64295;44.772;39.872;2022-12-10T05:38:46;9.89;64.18
75683;HTU21D;64295;44.772;39.872;2022-12-10T05:41:15;9.92;64.11
75683;HTU21D;64295;44.772;39.872;2022-12-10T05:43:42;9.94;64.06
75683;HTU21D;64295;44.772;39.872;2022-12-10T05:46:14;9.96;63.99
75683;HTU21D;64295;44.772;39.872;2022-12-10T05:48:41;9.98;63.95
75683;HTU21D;64295;44.772;39.872;2022-12-10T05:51:18;10.01;63.88
75683;HTU21D;64295;44.772;39.872;2022-12-10T05:53:45;10.07;63.80
75683;HTU21D;64295;44.772;39.872;2022-12-10T05:56:15;10.10;63.69
75683;HTU21D;64295;44.772;39.872;2022-12-10T05:58:43;10.20;63.66
75683;HTU21D;64295;44.772;39.872;2022-12-10T06:01:21;10.22;63.62
75683;HTU21D;64295;44.772;39.872;2022-12-10T06:03:48;10.16;63.69
75683;HTU21D;64295;44.772;39.872;2022-12-10T06:06:27;10.15;63.75
75683;HTU21D;64295;44.772;39.872;2022-12-10T06:08:54;10.14;63.78
75683;HTU21D;64295;44.772;39.872;2022-12-10T06:11:24;10.14;63.76
75683;HTU21D;64295;44.772;39.872;2022-12-10T06:13:52;10.19;63.73
75683;HTU21D;64295;44.772;39.872;2022-12-10T06:16:18;10.29;63.59
75683;HTU21D;64295;44.772;39.872;2022-12-10T06:18:44;10.41;63.35
75683;HTU21D;64295;44.772;39.872;2022-12-10T06:21:15;10.52;63.14
75683;HTU21D;64295;44.772;39.872;2022-12-10T06:23:41;10.54;63.05
75683;HTU21D;64295;44.772;39.872;2022-12-10T06:26:10;10.59;62.93
75683;HTU21D;64295;44.772;39.872;2022-12-10T06:28:36;10.63;62.86
75683;HTU21D;64295;44.772;39.872;2022-12-10T06:31:26;10.71;62.69
75683;HTU21D;64295;44.772;39.872;2022-12-10T06:33:52;10.81;62.53
75683;HTU21D;64295;44.772;39.872;2022-12-10T06:36:19;10.87;62.38
75683;HTU21D;64295;44.772;39.872;2022-12-10T06:38:48;10.94;62.26
75683;HTU21D;64295;44.772;39.872;2022-12-10T06:41:15;11.00;62.15
75683;HTU21D;64295;44.772;39.872;2022-12-10T06:43:42;11.08;62.02
75683;HTU21D;64295;44.772;39.872;2022-12-10T06:46:11;11.16;61.86
75683;HTU21D;64295;44.772;39.872;2022-12-10T06:48:37;11.19;61.79
75683;HTU21D;64295;44.772;39.872;2022-12-10T06:51:04;11.24;61.73
75683;HTU21D;64295;44.772;39.872;2022-12-10T06:53:31;11.27;61.65
75683;HTU21D;64295;44.772;39.872;2022-12-10T06:55:59;11.33;61.57
75683;HTU21D;64295;44.772;39.872;2022-12-10T06:58:27;11.46;61.47
75683;HTU21D;64295;44.772;39.872;2022-12-10T07:00:54;11.54;61.31
75683;HTU21D;64295;44.772;39.872;2022-12-10T07:03:20;11.62;61.21
75683;HTU21D;64295;44.772;39.872;2022-12-10T07:05:46;11.72;61.13
75683;HTU21D;64295;44.772;39.872;2022-12-10T07:08:11;11.84;61.01
75683;HTU21D;64295;44.772;39.872;2022-12-10T07:10:40;11.98;60.80
75683;HTU21D;64295;44.772;39.872;2022-12-10T07:13:06;12.12;60.63
75683;HTU21D;64295;44.772;39.872;2022-12-10T07:15:31;12.28;60.31
75683;HTU21D;64295;44.772;39.872;2022-12-10T07:17:57;12.41;59.96
75683;HTU21D;64295;44.772;39.872;2022-12-10T07:20:23;12.62;59.54
75683;HTU21D;64295;44.772;39.872;2022-12-10T07:22:49;12.81;59.10
75683;HTU21D;64295;44.772;39.872;2022-12-10T07:25:15;12.93;58.80
75683;HTU21D;64295;44.772;39.872;2022-12-10T07:27:41;13.07;58.52
75683;HTU21D;64295;44.772;39.872;2022-12-10T07:30:07;13.26;58.15
75683;HTU21D;64295;44.772;39.872;2022-12-10T07:32:33;13.52;57.64
75683;HTU21D;64295;44.772;39.872;2022-12-10T07:34:59;13.77;57.13
75683;HTU21D;64295;44.772;39.872;2022-12-10T07:37:25;13.97;56.60
75683;HTU21D;64295;44.772;39.872;2022-12-10T07:39:51;14.08;56.29
75683;HTU21D;64295;44.772;39.872;2022-12-10T07:42:17;14.08;56.33
75683;HTU21D;64295;44.772;39.872;2022-12-10T07:44:43;14.11;56.06
75683;HTU21D;64295;44.772;39.872;2022-12-10T07:47:09;14.26;55.75
75683;HTU21D;64295;44.772;39.872;2022-12-10T07:49:34;14.48;55.45
75683;HTU21D;64295;44.772;39.872;2022-12-10T07:52:00;14.62;54.87
75683;HTU21D;64295;44.772;39.872;2022-12-10T07:54:26;14.72;54.61
75683;HTU21D;64295;44.772;39.872;2022-12-10T07:56:52;14.91;54.30
75683;HTU21D;64295;44.772;39.872;2022-12-10T07:59:18;15.04;53.81
75683;HTU21D;64295;44.772;39.872;2022-12-10T08:01:44;15.25;53.44
75683;HTU21D;64295;44.772;39.872;2022-12-10T08:04:10;15.39;53.10
75683;HTU21D;64295;44.772;39.872;2022-12-10T08:06:36;15.45;52.81
75683;HTU21D;64295;44.772;39.872;2022-12-10T08:09:02;15.58;52.54
75683;HTU21D;64295;44.772;39.872;2022-12-10T08:11:28;15.68;52.34
75683;HTU21D;64295;44.772;39.872;2022-12-10T08:13:54;15.78;52.54
75683;HTU21D;64295;44.772;39.872;2022-12-10T08:16:29;15.84;52.30
75683;HTU21D;64295;44.772;39.872;2022-12-10T08:18:58;15.96;52.21
75683;HTU21D;64295;44.772;39.872;2022-12-10T08:21:27;16.10;51.71
75683;HTU21D;64295;44.772;39.872;2022-12-10T08:23:54;16.26;51.29
75683;HTU21D;64295;44.772;39.872;2022-12-10T08:26:25;16.37;50.77
75683;HTU21D;64295;44.772;39.872;2022-12-10T08:28:55;16.51;50.56
75683;HTU21D;64295;44.772;39.872;2022-12-10T08:31:23;16.64;50.37
75683;HTU21D;64295;44.772;39.872;2022-12-10T08:33:50;16.75;49.93
75683;HTU21D;64295;44.772;39.872;2022-12-10T08:36:18;16.87;49.65
75683;HTU21D;64295;44.772;39.872;2022-12-10T08:38:44;16.93;49.68
75683;HTU21D;64295;44.772;39.872;2022-12-10T08:41:16;17.02;49.05
75683;HTU21D;64295;44.772;39.872;2022-12-10T08:43:43;17.09;48.86
75683;HTU21D;64295;44.772;39.872;2022-12-10T08:46:10;17.20;48.60
75683;HTU21D;64295;44.772;39.872;2022-12-10T08:48:37;17.34;48.50
75683;HTU21D;64295;44.772;39.872;2022-12-10T08:51:04;17.44;48.35
75683;HTU21D;64295;44.772;39.872;2022-12-10T08:53:31;17.50;48.32
75683;HTU21D;64295;44.772;39.872;2022-12-10T08:55:57;17.63;48.35
75683;HTU21D;64295;44.772;39.872;2022-12-10T08:58:23;17.81;48.03
75683;HTU21D;64295;44.772;39.872;2022-12-10T09:00:49;17.96;47.77
75683;HTU21D;64295;44.772;39.872;2022-12-10T09:03:15;18.09;47.26
75683;HTU21D;64295;44.772;39.872;2022-12-10T09:05:42;18.21;47.26
75683;HTU21D;64295;44.772;39.872;2022-12-10T09:08:08;18.29;47.10
75683;HTU21D;64295;44.772;39.872;2022-12-10T09:10:36;18.35;46.83
75683;HTU21D;64295;44.772;39.872;2022-12-10T09:13:03;18.46;46.62
75683;HTU21D;64295;44.772;39.872;2022-12-10T09:15:29;18.53;46.76
75683;HTU21D;64295;44.772;39.872;2022-12-10T09:17:55;18.69;46.30
75683;HTU21D;64295;44.772;39.872;2022-12-10T09:20:21;18.78;46.03
75683;HTU21D;64295;44.772;39.872;2022-12-10T09:22:46;18.76;46.22
75683;HTU21D;64295;44.772;39.872;2022-12-10T09:25:12;18.81;46.42
75683;HTU21D;64295;44.772;39.872;2022-12-10T09:27:41;19.00;46.33
75683;HTU21D;64295;44.772;39.872;2022-12-10T09:30:08;19.21;46.12
75683;HTU21D;64295;44.772;39.872;2022-12-10T09:32:36;19.28;45.48
75683;HTU21D;64295;44.772;39.872;2022-12-10T09:35:03;19.32;45.12
75683;HTU21D;64295;44.772;39.872;2022-12-10T09:37:29;19.32;45.07
75683;HTU21D;64295;44.772;39.872;2022-12-10T09:39:55;19.36;45.34
75683;HTU21D;64295;44.772;39.872;2022-12-10T09:42:51;19.43;45.59
75683;HTU21D;64295;44.772;39.872;2022-12-10T09:45:20;19.60;45.15
75683;HTU21D;64295;44.772;39.872;2022-12-10T09:51:00;19.85;44.62
75683;HTU21D;64295;44.772;39.872;2022-12-10T09:53:28;19.88;43.93
75683;HTU21D;64295;44.772;39.872;2022-12-10T09:55:55;19.95;43.14
75683;HTU21D;64295;44.772;39.872;2022-12-10T09:58:26;20.03;42.66
75683;HTU21D;64295;44.772;39.872;2022-12-10T10:00:55;20.15;43.61
75683;HTU21D;64295;44.772;39.872;2022-12-10T10:03:22;20.21;43.20
75683;HTU21D;64295;44.772;39.872;2022-12-10T10:05:50;20.33;42.53
75683;HTU21D;64295;44.772;39.872;2022-12-10T10:10:46;20.49;41.94
75683;HTU21D;64295;44.772;39.872;2022-12-10T10:15:43;20.70;41.99
75683;HTU21D;64295;44.772;39.872;2022-12-10T10:18:29;20.79;41.52
75683;HTU21D;64295;44.772;39.872;2022-12-10T10:21:00;20.85;41.35
75683;HTU21D;64295;44.772;39.872;2022-12-10T10:23:26;20.86;41.49
75683;HTU21D;64295;44.772;39.872;2022-12-10T10:25:52;20.87;41.55
75683;HTU21D;64295;44.772;39.872;2022-12-10T10:28:20;20.90;40.75
75683;HTU21D;64295;44.772;39.872;2022-12-10T10:30:48;20.88;40.53
75683;HTU21D;64295;44.772;39.872;2022-12-10T10:33:15;20.86;40.76
75683;HTU21D;64295;44.772;39.872;2022-12-10T10:38:20;21.00;40.43
75683;HTU21D;64295;44.772;39.872;2022-12-10T10:40:56;20.98;39.87
75683;HTU21D;64295;44.772;39.872;2022-12-10T10:43:32;20.99;40.22
75683;HTU21D;64295;44.772;39.872;2022-12-10T10:46:04;21.02;40.16
75683;HTU21D;64295;44.772;39.872;2022-12-10T10:48:32;21.06;39.92
75683;HTU21D;64295;44.772;39.872;2022-12-10T10:53:50;21.14;40.01
75683;HTU21D;64295;44.772;39.872;2022-12-10T10:56:25;21.17;39.80
75683;HTU21D;64295;44.772;39.872;2022-12-10T10:58:58;21.15;39.51
75683;HTU21D;64295;44.772;39.872;2022-12-10T11:04:44;21.03;39.81
75683;HTU21D;64295;44.772;39.872;2022-12-10T11:07:37;20.95;39.15
75683;HTU21D;64295;44.772;39.872;2022-12-10T11:10:19;20.78;39.13
75683;HTU21D;64295;44.772;39.872;2022-12-10T11:12:53;20.69;40.37
75683;HTU21D;64295;44.772;39.872;2022-12-10T11:17:53;20.68;39.68
75683;HTU21D;64295;44.772;39.872;2022-12-10T11:20:28;20.60;39.32
75683;HTU21D;64295;44.772;39.872;2022-12-10T11:22:59;20.55;39.33
75683;HTU21D;64295;44.772;39.872;2022-12-10T11:25:48;20.49;39.42
75683;HTU21D;64295;44.772;39.872;2022-12-10T11:31:42;20.41;39.49
75683;HTU21D;64295;44.772;39.872;2022-12-10T11:40:13;20.21;39.88
75683;HTU21D;64295;44.772;39.872;2022-12-10T11:42:56;20.22;39.81
75683;HTU21D;64295;44.772;39.872;2022-12-10T11:49:00;19.98;39.95
75683;HTU21D;64295;44.772;39.872;2022-12-10T11:51:59;19.83;39.88
75683;HTU21D;64295;44.772;39.872;2022-12-10T11:57:33;19.61;39.62
75683;HTU21D;64295;44.772;39.872;2022-12-10T12:00:24;19.46;39.52
75683;HTU21D;64295;44.772;39.872;2022-12-10T12:14:14;18.58;40.43
75683;HTU21D;64295;44.772;39.872;2022-12-10T12:16:51;18.46;40.65
75683;HTU21D;64295;44.772;39.872;2022-12-10T12:19:28;18.34;41.10
75683;HTU21D;64295;44.772;39.872;2022-12-10T12:22:00;18.23;41.25
75683;HTU21D;64295;44.772;39.872;2022-12-10T12:24:40;18.08;41.50
75683;HTU21D;64295;44.772;39.872;2022-12-10T12:30:12;17.82;41.98
75683;HTU21D;64295;44.772;39.872;2022-12-10T12:32:54;17.68;42.33
75683;HTU21D;64295;44.772;39.872;2022-12-10T12:35:42;17.55;42.50
75683;HTU21D;64295;44.772;39.872;2022-12-10T12:38:27;17.43;42.65
75683;HTU21D;64295;44.772;39.872;2022-12-10T12:41:05;17.33;42.94
75683;HTU21D;64295;44.772;39.872;2022-12-10T12:46:23;17.20;43.16
75683;HTU21D;64295;44.772;39.872;2022-12-10T12:49:12;0.00;43.41
75683;HTU21D;64295;44.772;39.872;2022-12-10T12:54:12;16.98;43.74
75683;HTU21D;64295;44.772;39.872;2022-12-10T12:57:35;16.87;43.85
75683;HTU21D;64295;44.772;39.872;2022-12-10T13:00:08;16.74;44.13
75683;HTU21D;64295;44.772;39.872;2022-12-10T13:02:59;16.66;44.35
75683;HTU21D;64295;44.772;39.872;2022-12-10T13:05:37;16.59;44.59
75683;HTU21D;64295;44.772;39.872;2022-12-10T13:08:29;16.49;44.83
75683;HTU21D;64295;44.772;39.872;2022-12-10T13:13:40;16.31;45.32
75683;HTU21D;64295;44.772;39.872;2022-12-10T13:27:13;16.00;46.09
75683;HTU21D;64295;44.772;39.872;2022-12-10T13:30:04;15.93;46.14
75683;HTU21D;64295;44.772;39.872;2022-12-10T13:37:54;15.76;46.52
75683;HTU21D;64295;44.772;39.872;2022-12-10T13:43:20;15.66;46.70
75683;HTU21D;64295;44.772;39.872;2022-12-10T13:49:58;15.46;46.96
75683;HTU21D;64295;44.772;39.872;2022-12-10T13:56:29;15.24;47.37
75683;HTU21D;64295;44.772;39.872;2022-12-10T14:08:16;14.93;48.18
75683;HTU21D;64295;44.772;39.872;2022-12-10T14:10:48;14.95;48.09
75683;HTU21D;64295;44.772;39.872;2022-12-10T14:13:20;14.98;48.02
75683;HTU21D;64295;44.772;39.872;2022-12-10T14:15:55;15.01;48.00
75683;HTU21D;64295;44.772;39.872;2022-12-10T14:18:31;15.04;47.97
75683;HTU21D;64295;44.772;39.872;2022-12-10T14:21:05;15.04;47.95
75683;HTU21D;64295;44.772;39.872;2022-12-10T14:23:34;15.04;48.02
75683;HTU21D;64295;44.772;39.872;2022-12-10T14:26:11;15.00;48.11
75683;HTU21D;64295;44.772;39.872;2022-12-10T14:28:49;14.94;48.24
75683;HTU21D;64295;44.772;39.872;2022-12-10T14:31:37;14.88;48.37
75683;HTU21D;64295;44.772;39.872;2022-12-10T14:34:24;14.88;48.44
75683;HTU21D;64295;44.772;39.872;2022-12-10T14:36:55;14.85;48.86
75683;HTU21D;64295;44.772;39.872;2022-12-10T14:39:35;14.88;49.11
75683;HTU21D;64295;44.772;39.872;2022-12-10T14:42:41;0.00;50.45
75683;HTU21D;64295;44.772;39.872;2022-12-10T14:45:15;14.81;49.89
75683;HTU21D;64295;44.772;39.872;2022-12-10T14:47:48;14.73;49.82
75683;HTU21D;64295;44.772;39.872;2022-12-10T14:50:16;14.67;49.82
75683;HTU21D;64295;44.772;39.872;2022-12-10T14:52:45;14.63;49.85
75683;HTU21D;64295;44.772;39.872;2022-12-10T14:55:18;14.56;49.83
75683;HTU21D;64295;44.772;39.872;2022-12-10T14:57:56;14.48;49.94
75683;HTU21D;64295;44.772;39.872;2022-12-10T15:00:25;14.42;50.30
75683;HTU21D;64295;44.772;39.872;2022-12-10T15:03:07;14.38;50.29
75683;HTU21D;64295;44.772;39.872;2022-12-10T15:05:34;14.34;50.32
75683;HTU21D;64295;44.772;39.872;2022-12-10T15:08:06;14.32;50.37
75683;HTU21D;64295;44.772;39.872;2022-12-10T15:10:37;14.28;50.43
75683;HTU21D;64295;44.772;39.872;2022-12-10T15:13:05;14.23;50.51
75683;HTU21D;64295;44.772;39.872;2022-12-10T15:15:37;14.19;50.60
75683;HTU21D;64295;44.772;39.872;2022-12-10T15:18:16;14.14;50.63
75683;HTU21D;64295;44.772;39.872;2022-12-10T15:20:51;14.09;50.72
75683;HTU21D;64295;44.772;39.872;2022-12-10T15:23:23;14.06;50.76
75683;HTU21D;64295;44.772;39.872;2022-12-10T15:31:28;13.98;51.10
75683;HTU21D;64295;44.772;39.872;2022-12-10T15:34:07;13.93;51.11
75683;HTU21D;64295;44.772;39.872;2022-12-10T15:36:40;13.90;51.11
75683;HTU21D;64295;44.772;39.872;2022-12-10T15:41:47;13.93;51.13
75683;HTU21D;64295;44.772;39.872;2022-12-10T15:44:25;13.92;51.08
75683;HTU21D;64295;44.772;39.872;2022-12-10T15:49:24;13.76;51.24
75683;HTU21D;64295;44.772;39.872;2022-12-10T15:51:51;13.68;51.30
75683;HTU21D;64295;44.772;39.872;2022-12-10T15:54:42;13.63;51.35
75683;HTU21D;64295;44.772;39.872;2022-12-10T15:57:15;13.54;51.47
75683;HTU21D;64295;44.772;39.872;2022-12-10T15:59:42;13.45;51.54
75683;HTU21D;64295;44.772;39.872;2022-12-10T16:02:39;13.32;51.77
75683;HTU21D;64295;44.772;39.872;2022-12-10T16:07:53;13.11;51.91
75683;HTU21D;64295;44.772;39.872;2022-12-10T16:10:21;13.08;51.97
75683;HTU21D;64295;44.772;39.872;2022-12-10T16:13:34;13.06;51.95
75683;HTU21D;64295;44.772;39.872;2022-12-10T16:15:43;12.99;52.00
75683;HTU21D;64295;44.772;39.872;2022-12-10T16:18:11;12.93;52.11
75683;HTU21D;64295;44.772;39.872;2022-12-10T16:20:37;12.89;52.14
75683;HTU21D;64295;44.772;39.872;2022-12-10T16:23:03;12.79;52.22
75683;HTU21D;64295;44.772;39.872;2022-12-10T16:25:32;12.67;52.38
75683;HTU21D;64295;44.772;39.872;2022-12-10T16:28:01;12.61;52.45
75683;HTU21D;64295;44.772;39.872;2022-12-10T16:30:39;12.53;52.56
75683;HTU21D;64295;44.772;39.872;2022-12-10T16:33:06;12.51;52.61
75683;HTU21D;64295;44.772;39.872;2022-12-10T16:35:32;12.48;52.66
75683;HTU21D;64295;44.772;39.872;2022-12-10T16:38:01;12.47;52.65
75683;HTU21D;64295;44.772;39.872;2022-12-10T16:40:28;12.38;52.69
75683;HTU21D;64295;44.772;39.872;2022-12-10T16:42:55;12.28;52.83
75683;HTU21D;64295;44.772;39.872;2022-12-10T16:45:25;12.18;52.95
75683;HTU21D;64295;44.772;39.872;2022-12-10T16:47:52;12.07;53.07
75683;HTU21D;64295;44.772;39.872;2022-12-10T16:50:19;12.02;53.13
75683;HTU21D;64295;44.772;39.872;2022-12-10T16:52:45;11.90;53.25
75683;HTU21D;64295;44.772;39.872;2022-12-10T16:55:17;11.88;53.36
75683;HTU21D;64295;44.772;39.872;2022-12-10T16:57:44;11.89;53.28
75683;HTU21D;64295;44.772;39.872;2022-12-10T17:00:22;11.85;53.30
75683;HTU21D;64295;44.772;39.872;2022-12-10T17:02:50;11.79;53.33
75683;HTU21D;64295;44.772;39.872;2022-12-10T17:05:31;11.71;53.45
75683;HTU21D;64295;44.772;39.872;2022-12-10T17:07:58;11.63;53.52
75683;HTU21D;64295;44.772;39.872;2022-12-10T17:10:25;11.59;53.63
75683;HTU21D;64295;44.772;39.872;2022-12-10T17:13:14;11.63;53.59
75683;HTU21D;64295;44.772;39.872;2022-12-10T17:15:41;11.66;53.52
75683;HTU21D;64295;44.772;39.872;2022-12-10T17:18:12;11.66;53.50
75683;HTU21D;64295;44.772;39.872;2022-12-10T17:20:38;11.51;53.67
75683;HTU21D;64295;44.772;39.872;2022-12-10T17:23:04;11.39;53.89
75683;HTU21D;64295;44.772;39.872;2022-12-10T17:25:30;11.31;54.05
75683;HTU21D;64295;44.772;39.872;2022-12-10T17:27:57;11.39;54.15
75683;HTU21D;64295;44.772;39.872;2022-12-10T17:30:23;11.42;54.12
75683;HTU21D;64295;44.772;39.872;2022-12-10T17:32:49;11.32;54.26
75683;HTU21D;64295;44.772;39.872;2022-12-10T17:35:21;11.33;54.30
75683;HTU21D;64295;44.772;39.872;2022-12-10T17:37:51;11.37;54.23
75683;HTU21D;64295;44.772;39.872;2022-12-10T17:40:22;11.27;54.33
75683;HTU21D;64295;44.772;39.872;2022-12-10T17:42:48;11.23;54.41
75683;HTU21D;64295;44.772;39.872;2022-12-10T17:45:18;11.19;54.48